Time;durP1;ratioP1;P1;durP2;ratioP2;P2;SDS_P1;SDS_P2;PMS_P1;PMS_P2;Temp;Humidity;BMP_temperature;BMP_pressure;BME280_temperature;BME280_humidity;BME280_pressure;Samples;Min_cycle;Max_cycle;Signal;HPM_P1;HPM_P2
2023/02/13 00:01:04;;;;;;;;;;;;;;;28.75;70.50;101058.50;5074157;27;65713;-35
2023/02/13 00:03:35;;;;;;;;;;;;;;;28.80;71.13;101058.72;5090962;27;70249;-36
2023/02/13 00:06:06;;;;;;;;;;;;;;;28.82;71.05;101055.84;5096272;27;65633;-36
2023/02/13 00:08:36;;;;;;;;;;;;;;;28.84;70.96;101064.56;5087035;27;70238;-37
2023/02/13 00:11:07;;;;;;;;;;;;;;;28.87;71.13;101075.78;5089408;27;67045;-35
2023/02/13 00:13:37;;;;;;;;;;;;;;;28.93;70.98;101074.97;5091320;27;70127;-35
2023/02/13 00:16:07;;;;;;;;;;;;;;;28.94;71.44;101071.22;5090352;27;65954;-37
2023/02/13 00:18:38;;;;;;;;;;;;;;;28.95;71.06;101078.31;5097370;27;70134;-35
2023/02/13 00:21:10;;;;;;;;;;;;;;;28.96;71.13;101079.16;5095020;27;66162;-35
2023/02/13 00:23:40;;;;;;;;;;;;;;;29.01;71.01;101075.84;5079532;27;69677;-35
2023/02/13 00:26:11;;;;;;;;;;;;;;;29.00;71.06;101079.56;5082089;27;67156;-34
2023/02/13 00:28:44;;;;;;;;;;;;;;;29.02;70.88;101082.91;5096597;27;69836;-35
2023/02/13 00:31:18;;;;;;;;;;;;;;;29.03;71.49;101084.56;5096471;27;65396;-37
2023/02/13 00:33:49;;;;;;;;;;;;;;;29.03;71.32;101089.97;5067797;27;70118;-36
2023/02/13 00:36:21;;;;;;;;;;;;;;;29.04;71.29;101091.69;5101829;27;66324;-36
2023/02/13 00:38:52;;;;;;;;;;;;;;;28.94;73.22;101098.25;5090472;27;69739;-36
2023/02/13 00:41:23;;;;;;;;;;;;;;;28.96;73.06;101096.19;5074104;27;65202;-36
2023/02/13 00:43:53;;;;;;;;;;;;;;;28.98;72.72;101104.09;5079510;27;68840;-35
2023/02/13 00:46:23;;;;;;;;;;;;;;;29.00;73.00;101101.16;5089486;27;65255;-35
2023/02/13 00:48:53;;;;;;;;;;;;;;;28.55;72.65;101027.91;5090650;27;69499;-36
2023/02/13 00:51:23;;;;;;;;;;;;;;;29.05;73.01;101104.13;5089963;27;67042;-35
2023/02/13 00:53:54;;;;;;;;;;;;;;;29.08;72.64;101103.72;5075622;27;70543;-36
2023/02/13 00:56:24;;;;;;;;;;;;;;;29.10;72.14;101107.06;5086962;27;67059;-35
2023/02/13 00:58:54;;;;;;;;;;;;;;;29.12;72.29;101115.81;5091607;27;70904;-37
2023/02/13 01:01:25;;;;;;;;;;;;;;;29.11;70.92;101119.53;5078974;27;66680;-35
2023/02/13 01:03:56;;;;;;;;;;;;;;;29.13;70.72;101110.19;5097895;27;70300;-34
2023/02/13 01:06:27;;;;;;;;;;;;;;;28.94;70.46;101082.03;5097977;27;66924;-34
2023/02/13 01:09:01;;;;;;;;;;;;;;;29.20;70.29;101121.03;5090832;27;69474;-37
2023/02/13 01:11:31;;;;;;;;;;;;;;;29.23;70.12;101123.31;5073896;27;66322;-34
2023/02/13 01:14:02;;;;;;;;;;;;;;;29.25;69.67;101125.81;5081843;27;69646;-34
2023/02/13 01:16:32;;;;;;;;;;;;;;;29.27;69.69;101119.16;5080661;27;66634;-34
2023/02/13 01:19:03;;;;;;;;;;;;;;;29.31;69.03;101130.38;5099182;27;70332;-33
2023/02/13 01:21:34;;;;;;;;;;;;;;;29.32;69.41;101127.50;5078304;27;65655;-34
2023/02/13 01:24:05;;;;;;;;;;;;;;;29.34;69.01;101125.44;5077720;27;70095;-35
2023/02/13 01:26:36;;;;;;;;;;;;;;;29.38;68.79;101121.25;5092309;27;66244;-35
2023/02/13 01:29:07;;;;;;;;;;;;;;;29.42;68.90;101123.56;5096508;27;70125;-34
2023/02/13 01:31:38;;;;;;;;;;;;;;;29.44;68.81;101129.59;5083465;27;66925;-35
2023/02/13 01:34:08;;;;;;;;;;;;;;;29.46;68.06;101138.34;5078017;27;70489;-35
2023/02/13 01:36:38;;;;;;;;;;;;;;;29.47;67.94;101130.00;5078072;27;66119;-34
2023/02/13 01:39:10;;;;;;;;;;;;;;;29.50;68.32;101128.78;5076869;27;69757;-33
2023/02/13 01:41:40;;;;;;;;;;;;;;;29.53;67.75;101139.16;5091584;27;66595;-35
2023/02/13 01:44:29;;;;;;;;;;;;;;;29.55;68.18;101137.09;5080986;27;70230;-33
2023/02/13 01:47:00;;;;;;;;;;;;;;;29.57;67.46;101141.28;5088152;27;66800;-33
2023/02/13 01:49:31;;;;;;;;;;;;;;;29.59;67.50;101146.47;5085830;27;69795;-38
2023/02/13 01:52:02;;;;;;;;;;;;;;;29.60;67.31;101148.97;5096453;27;65564;-35
2023/02/13 01:54:33;;;;;;;;;;;;;;;29.63;67.19;101147.75;5094926;27;69834;-35
2023/02/13 01:57:07;;;;;;;;;;;;;;;29.65;67.10;101152.97;5076297;27;66636;-35
2023/02/13 01:59:42;;;;;;;;;;;;;;;29.67;67.28;101157.13;5047956;27;69771;-35
2023/02/13 02:02:13;;;;;;;;;;;;;;;29.69;67.20;101160.44;5098042;27;66389;-35
2023/02/13 02:04:44;;;;;;;;;;;;;;;29.71;66.83;101157.56;5093309;27;69634;-36
2023/02/13 02:07:25;;;;;;;;;;;;;;;29.73;67.38;101148.19;5068322;27;65659;-35
2023/02/13 02:10:02;;;;;;;;;;;;;;;29.75;66.64;101154.22;5087708;27;70236;-35
2023/02/13 02:12:43;;;;;;;;;;;;;;;29.76;67.19;101150.47;5091982;27;66674;-34
2023/02/13 02:15:13;;;;;;;;;;;;;;;29.78;66.51;101153.81;5074718;27;70662;-34
2023/02/13 02:17:43;;;;;;;;;;;;;;;29.79;66.50;101155.47;5078591;27;67027;-35
2023/02/13 02:20:22;;;;;;;;;;;;;;;29.81;66.41;101158.81;5076947;27;70717;-34
2023/02/13 02:23:11;;;;;;;;;;;;;;;29.83;66.76;101162.13;5094981;27;67131;-33
2023/02/13 02:25:41;;;;;;;;;;;;;;;29.87;66.61;101150.91;5091646;27;69860;-35
2023/02/13 02:28:23;;;;;;;;;;;;;;;29.88;66.09;101155.28;5095486;27;66891;-34
2023/02/13 02:31:12;;;;;;;;;;;;;;;29.90;66.11;101153.22;5075589;27;70578;-34
2023/02/13 02:33:42;;;;;;;;;;;;;;;29.93;66.31;101150.09;5088202;27;64784;-34
2023/02/13 02:36:32;;;;;;;;;;;;;;;29.94;66.38;101149.03;5098712;27;70023;-35
2023/02/13 02:39:22;;;;;;;;;;;;;;;29.97;65.72;101157.56;5096165;27;66994;-35
2023/02/13 02:41:52;;;;;;;;;;;;;;;29.98;65.68;101148.41;5078555;27;69439;-34
2023/02/13 02:44:31;;;;;;;;;;;;;;;30.00;65.78;101146.31;5076102;27;66654;-37
2023/02/13 02:50:15;;;;;;;;;;;;;;;30.06;65.28;101139.25;5094146;27;66131;-36
2023/02/13 02:53:05;;;;;;;;;;;;;;;30.08;65.15;101145.28;5067318;27;69629;-36
2023/02/13 02:55:42;;;;;;;;;;;;;;;30.11;65.55;101139.44;5061359;27;66697;-35
2023/02/13 03:06:52;;;;;;;;;;;;;;;30.22;64.99;101135.31;5085181;27;66341;-34
2023/02/13 03:15:05;;;;;;;;;;;;;;;30.30;64.31;101108.03;5088415;27;69851;-36
2023/02/13 03:23:35;;;;;;;;;;;;;;;30.39;63.91;101105.94;5085427;27;67388;-36
2023/02/13 03:26:05;;;;;;;;;;;;;;;30.43;63.46;101101.78;5082683;27;70138;-35
2023/02/13 03:31:33;;;;;;;;;;;;;;;30.46;63.39;101091.34;5096033;27;69923;-35
2023/02/13 03:34:05;;;;;;;;;;;;;;;30.49;63.82;101090.09;5094614;27;65364;-36
2023/02/13 03:39:44;;;;;;;;;;;;;;;30.54;63.16;101087.59;5089009;27;67100;-35
2023/02/13 03:42:22;;;;;;;;;;;;;;;30.57;63.33;101080.91;5093316;27;69232;-35
2023/02/13 03:47:44;;;;;;;;;;;;;;;30.61;63.42;101071.31;5096846;27;70644;-35
2023/02/13 03:50:15;;;;;;;;;;;;;;;30.63;63.02;101064.63;5098713;27;66956;-35
2023/02/13 03:52:48;;;;;;;;;;;;;;;30.65;63.26;101056.31;5095027;27;70573;-34
2023/02/13 04:01:13;;;;;;;;;;;;;;;30.71;62.56;101056.28;5087225;27;65963;-36
2023/02/13 04:03:50;;;;;;;;;;;;;;;30.72;62.51;101041.69;5088500;27;70618;-35
2023/02/13 04:06:26;;;;;;;;;;;;;;;30.73;62.13;101043.34;5090275;27;66804;-35
2023/02/13 04:08:56;;;;;;;;;;;;;;;30.76;62.24;101035.81;5079156;27;69778;-35
2023/02/13 04:11:30;;;;;;;;;;;;;;;30.77;62.44;101034.78;5098417;27;65562;-34
2023/02/13 04:14:06;;;;;;;;;;;;;;;30.79;62.01;101024.59;5101908;27;69489;-37
2023/02/13 04:16:39;;;;;;;;;;;;;;;30.80;61.98;101035.22;5099457;27;67007;-35
2023/02/13 04:19:10;;;;;;;;;;;;;;;30.82;62.40;101029.59;5099690;27;70820;-35
2023/02/13 04:21:41;;;;;;;;;;;;;;;30.82;62.36;101024.19;5091760;27;66301;-36
2023/02/13 04:24:11;;;;;;;;;;;;;;;30.85;62.04;101029.16;5097097;27;69483;-37
2023/02/13 04:26:42;;;;;;;;;;;;;;;30.86;61.99;101022.69;5098594;27;65871;-38
2023/02/13 04:29:13;;;;;;;;;;;;;;;30.87;61.71;101006.22;5099970;27;68640;-35
2023/02/13 04:31:43;;;;;;;;;;;;;;;30.88;62.10;101007.88;5091327;27;66604;-35
2023/02/13 04:34:14;;;;;;;;;;;;;;;30.91;62.08;101009.34;5087085;27;69726;-36
2023/02/13 04:36:44;;;;;;;;;;;;;;;30.91;61.85;100996.63;5089390;27;65605;-35
2023/02/13 04:39:15;;;;;;;;;;;;;;;30.93;61.95;100993.69;5100141;27;70277;-35
2023/02/13 04:41:45;;;;;;;;;;;;;;;30.93;61.90;100991.00;5088985;27;66173;-35
2023/02/13 04:44:15;;;;;;;;;;;;;;;30.96;61.59;100993.25;5089952;27;70217;-36
2023/02/13 04:46:45;;;;;;;;;;;;;;;30.97;61.43;100981.38;5103280;27;67292;-35
2023/02/13 04:49:15;;;;;;;;;;;;;;;31.00;61.31;100986.34;5098720;27;69874;-35
2023/02/13 04:51:45;;;;;;;;;;;;;;;31.01;61.22;100988.03;5088104;27;66189;-34
2023/02/13 04:54:16;;;;;;;;;;;;;;;31.03;61.42;100971.53;5098258;27;70394;-34
2023/02/13 04:56:46;;;;;;;;;;;;;;;31.04;61.48;100974.03;5099179;27;66035;-35
2023/02/13 04:59:16;;;;;;;;;;;;;;;31.05;61.58;100967.56;5093816;27;70836;-36
2023/02/13 05:01:46;;;;;;;;;;;;;;;31.09;61.53;100965.22;5090429;27;64637;-34
2023/02/13 05:04:17;;;;;;;;;;;;;;;31.11;61.11;100963.97;5094131;27;69906;-36
2023/02/13 05:06:48;;;;;;;;;;;;;;;31.13;60.97;100952.91;5101888;27;67047;-35
2023/02/13 05:09:18;;;;;;;;;;;;;;;30.93;60.99;100917.84;5093283;27;70087;-38
2023/02/13 05:11:52;;;;;;;;;;;;;;;31.19;60.94;100940.38;5095224;27;65995;-37
2023/02/13 05:14:22;;;;;;;;;;;;;;;31.21;61.03;100930.97;5101719;27;70039;-37
2023/02/13 05:16:52;;;;;;;;;;;;;;;31.23;60.94;100936.16;5094390;27;66961;-38
2023/02/13 05:19:23;;;;;;;;;;;;;;;31.24;60.85;100933.22;5078248;27;70536;-39
2023/02/13 05:24:42;;;;;;;;;;;;;;;31.28;60.97;100933.59;5089163;27;69937;-36
2023/02/13 05:27:12;;;;;;;;;;;;;;;31.29;60.42;100927.16;5093391;27;66705;-37
2023/02/13 05:29:42;;;;;;;;;;;;;;;31.30;60.89;100924.22;5088153;27;70518;-34
2023/02/13 05:32:12;;;;;;;;;;;;;;;31.32;60.61;100921.28;5091849;27;66115;-40
2023/02/13 05:34:43;;;;;;;;;;;;;;;31.33;60.21;100921.03;5065336;27;68167;-36
2023/02/13 05:37:13;;;;;;;;;;;;;;;31.12;60.42;100876.22;5092105;27;65719;-34
2023/02/13 05:39:44;;;;;;;;;;;;;;;31.37;60.27;100913.31;5094887;27;69880;-38
2023/02/13 05:42:14;;;;;;;;;;;;;;;31.38;60.13;100915.00;5093534;27;65927;-35
2023/02/13 05:44:45;;;;;;;;;;;;;;;31.39;60.51;100911.22;5098979;27;70180;-36
2023/02/13 05:47:15;;;;;;;;;;;;;;;31.42;60.05;100908.06;5096829;27;66089;-36
2023/02/13 05:49:46;;;;;;;;;;;;;;;31.44;60.40;100908.69;5101028;27;69923;-38
2023/02/13 05:52:16;;;;;;;;;;;;;;;31.46;59.84;100900.34;5091557;27;65535;-35
2023/02/13 05:54:49;;;;;;;;;;;;;;;31.48;60.14;100892.78;5096857;27;67989;-37
2023/02/13 05:57:19;;;;;;;;;;;;;;;31.48;60.13;100888.22;5095442;27;66676;-36
2023/02/13 05:59:49;;;;;;;;;;;;;;;31.52;60.06;100891.31;5094731;27;69645;-38
2023/02/13 06:02:20;;;;;;;;;;;;;;;31.53;59.90;100879.38;5092811;27;66596;-36
2023/02/13 06:04:50;;;;;;;;;;;;;;;31.56;59.91;100882.47;5095602;27;69798;-36
2023/02/13 06:07:22;;;;;;;;;;;;;;;31.57;59.78;100876.00;5093663;27;68966;-34
2023/02/13 06:09:53;;;;;;;;;;;;;;;31.60;59.70;100872.03;5075012;27;70061;-35
2023/02/13 06:12:24;;;;;;;;;;;;;;;31.62;60.02;100867.19;5094974;27;66632;-36
2023/02/13 06:14:54;;;;;;;;;;;;;;;31.64;60.00;100850.69;5090602;27;70466;-36
2023/02/13 06:17:24;;;;;;;;;;;;;;;31.66;59.96;100859.44;5096067;27;67076;-36
2023/02/13 06:19:54;;;;;;;;;;;;;;;31.67;59.83;100853.78;5093853;27;69981;-34
2023/02/13 06:22:24;;;;;;;;;;;;;;;31.69;59.40;100848.97;5096453;27;66600;-34
2023/02/13 06:24:54;;;;;;;;;;;;;;;31.71;59.72;100843.34;5088378;27;70380;-35
2023/02/13 06:27:25;;;;;;;;;;;;;;;31.73;59.52;100835.78;5097383;27;65451;-34
2023/02/13 06:29:55;;;;;;;;;;;;;;;31.75;59.25;100839.09;5091210;27;70781;-37
2023/02/13 06:32:25;;;;;;;;;;;;;;;31.76;59.27;100830.75;5095214;27;66636;-37
2023/02/13 06:34:55;;;;;;;;;;;;;;;31.78;59.62;100833.22;5089895;27;70125;-37
2023/02/13 06:37:26;;;;;;;;;;;;;;;31.79;59.40;100826.75;5095270;27;65965;-37
2023/02/13 06:39:56;;;;;;;;;;;;;;;31.81;59.56;100821.91;5094121;27;69818;-37
2023/02/13 06:42:26;;;;;;;;;;;;;;;31.84;59.36;100816.03;5099259;27;66153;-38
2023/02/13 06:44:56;;;;;;;;;;;;;;;31.86;59.44;100808.50;5096542;27;70756;-39
2023/02/13 06:47:27;;;;;;;;;;;;;;;31.88;59.28;100809.09;5080387;27;66542;-38
2023/02/13 06:49:57;;;;;;;;;;;;;;;31.91;59.35;100788.81;5095459;27;69174;-38
2023/02/13 06:52:29;;;;;;;;;;;;;;;31.93;59.22;100798.44;5094035;27;65218;-36
2023/02/13 06:54:59;;;;;;;;;;;;;;;31.95;59.33;100796.28;5081793;27;69124;-38
2023/02/13 06:57:31;;;;;;;;;;;;;;;31.97;59.25;100786.03;5055041;28;65547;-37
2023/02/13 07:00:04;;;;;;;;;;;;;;;32.01;59.23;100779.13;5095127;27;69970;-37
2023/02/13 07:02:36;;;;;;;;;;;;;;;32.02;59.04;100780.75;5096081;27;66566;-38
2023/02/13 07:05:08;;;;;;;;;;;;;;;32.04;59.28;100784.06;5088343;27;69900;-37
2023/02/13 07:07:39;;;;;;;;;;;;;;;32.09;58.90;100774.41;5093831;27;66044;-36
2023/02/13 07:10:11;;;;;;;;;;;;;;;32.11;59.16;100766.88;5096510;27;70619;-38
2023/02/13 07:12:41;;;;;;;;;;;;;;;32.15;59.28;100773.47;5094850;27;66246;-37
2023/02/13 07:15:16;;;;;;;;;;;;;;;32.16;59.15;100769.72;5092941;27;69903;-35
2023/02/13 07:17:47;;;;;;;;;;;;;;;32.19;58.93;100769.25;5091084;27;65605;-38
2023/02/13 07:20:17;;;;;;;;;;;;;;;32.21;58.94;100772.56;5072783;27;70741;-40
2023/02/13 07:22:48;;;;;;;;;;;;;;;32.23;58.88;100759.56;5095190;27;65496;-37
2023/02/13 07:25:18;;;;;;;;;;;;;;;32.27;58.94;100760.78;5095155;27;69647;-41
2023/02/13 07:27:48;;;;;;;;;;;;;;;32.28;58.76;100762.41;5082025;27;65815;-39
2023/02/13 07:30:18;;;;;;;;;;;;;;;32.31;58.75;100761.13;5061795;27;69947;-38
2023/02/13 07:32:50;;;;;;;;;;;;;;;32.34;58.85;100760.66;5097026;27;66823;-37
2023/02/13 07:35:20;;;;;;;;;;;;;;;32.35;58.75;100762.34;5100810;27;69586;-38
2023/02/13 07:37:52;;;;;;;;;;;;;;;32.38;58.84;100759.97;5102960;27;66812;-37
2023/02/13 07:40:22;;;;;;;;;;;;;;;32.39;58.89;100764.31;5083491;27;68817;-36
2023/02/13 07:42:52;;;;;;;;;;;;;;;32.42;58.79;100761.13;5101800;27;66858;-37
2023/02/13 07:45:22;;;;;;;;;;;;;;;32.43;58.89;100748.38;5086030;27;69922;-37
2023/02/13 07:47:54;;;;;;;;;;;;;;;32.44;58.77;100756.31;5096772;27;66809;-37
2023/02/13 07:50:25;;;;;;;;;;;;;;;32.48;58.74;100753.97;5090549;27;69645;-38
2023/02/13 07:52:56;;;;;;;;;;;;;;;32.51;58.62;100752.69;5099788;27;66475;-38
2023/02/13 07:55:27;;;;;;;;;;;;;;;32.51;58.73;100745.38;5092175;27;69778;-38
2023/02/13 07:57:59;;;;;;;;;;;;;;;32.56;58.67;100747.38;5090843;27;65822;-36
2023/02/13 08:00:29;;;;;;;;;;;;;;;32.57;58.70;100749.88;5095986;27;69087;-37
2023/02/13 08:03:00;;;;;;;;;;;;;;;32.60;58.37;100752.13;5094683;27;66707;-37
2023/02/13 08:05:31;;;;;;;;;;;;;;;32.63;58.31;100742.69;5076427;27;69312;-37
2023/02/13 08:08:01;;;;;;;;;;;;;;;32.66;58.47;100742.19;5073778;28;66118;-37
2023/02/13 08:13:20;;;;;;;;;;;;;;;32.69;58.15;100736.28;5097593;27;66227;-37
2023/02/13 08:15:50;;;;;;;;;;;;;;;32.72;58.43;100741.25;5099427;27;70546;-37
2023/02/13 08:18:20;;;;;;;;;;;;;;;32.76;58.34;100742.41;5101989;27;65858;-38
2023/02/13 08:20:51;;;;;;;;;;;;;;;32.77;58.25;100735.94;5083809;27;70576;-38
2023/02/13 08:23:21;;;;;;;;;;;;;;;32.82;58.14;100741.50;5096488;27;66910;-37
2023/02/13 08:25:52;;;;;;;;;;;;;;;32.83;58.20;100737.72;5095416;27;69808;-37
2023/02/13 08:28:23;;;;;;;;;;;;;;;32.86;57.81;100742.66;5090997;27;66161;-45
2023/02/13 08:30:53;;;;;;;;;;;;;;;32.88;58.02;100745.97;5102821;27;71467;-37
2023/02/13 08:33:24;;;;;;;;;;;;;;;32.91;58.14;100750.94;5082035;27;66115;-37
2023/02/13 08:35:54;;;;;;;;;;;;;;;32.93;58.15;100754.25;5094475;27;70470;-37
2023/02/13 08:38:24;;;;;;;;;;;;;;;32.96;58.22;100757.53;5094982;27;66644;-37
2023/02/13 08:40:58;;;;;;;;;;;;;;;32.97;57.90;100748.34;5096489;27;69555;-37
2023/02/13 08:43:28;;;;;;;;;;;;;;;33.00;58.03;100758.75;5097275;27;66899;-37
2023/02/13 08:45:59;;;;;;;;;;;;;;;33.00;58.01;100756.03;5078043;27;70257;-37
2023/02/13 08:48:29;;;;;;;;;;;;;;;33.01;57.90;100753.06;5092772;27;66048;-37
2023/02/13 08:50:59;;;;;;;;;;;;;;;33.04;57.92;100766.22;5090770;27;70533;-36
2023/02/13 08:53:29;;;;;;;;;;;;;;;33.06;58.09;100757.78;5091008;27;66399;-37
2023/02/13 08:55:59;;;;;;;;;;;;;;;33.07;57.92;100754.84;5094806;27;71479;-37
2023/02/13 08:58:32;;;;;;;;;;;;;;;33.11;57.72;100755.19;5059363;27;67432;-37
2023/02/13 09:01:07;;;;;;;;;;;;;;;33.13;57.73;100764.75;5077850;27;69047;-37
2023/02/13 09:03:38;;;;;;;;;;;;;;;33.19;57.54;100768.41;5093887;27;66746;-37
2023/02/13 09:06:08;;;;;;;;;;;;;;;33.22;57.48;100773.38;5082297;27;69388;-39
2023/02/13 09:08:38;;;;;;;;;;;;;;;33.25;57.60;100778.34;5079212;27;65608;-36
2023/02/13 09:11:09;;;;;;;;;;;;;;;33.27;57.57;100778.09;5097935;27;70436;-36
2023/02/13 09:13:39;;;;;;;;;;;;;;;33.29;57.50;100778.66;5097103;27;66686;-38
2023/02/13 09:16:09;;;;;;;;;;;;;;;33.23;57.45;100774.19;5098802;27;68693;-39
2023/02/13 09:18:39;;;;;;;;;;;;;;;32.97;59.04;100786.38;5064509;27;66139;-39
2023/02/13 09:21:11;;;;;;;;;;;;;;;32.84;59.39;100776.56;5091938;27;68986;-38
2023/02/13 09:23:42;;;;;;;;;;;;;;;32.71;60.18;100772.19;5089422;27;66914;-37
2023/02/13 09:26:13;;;;;;;;;;;;;;;32.64;60.74;100780.44;5092960;27;69486;-38
2023/02/13 09:28:43;;;;;;;;;;;;;;;32.58;60.67;100778.69;5090134;27;66357;-38
2023/02/13 09:31:15;;;;;;;;;;;;;;;32.55;60.86;100791.91;5096201;27;70399;-38
2023/02/13 09:33:47;;;;;;;;;;;;;;;32.52;61.18;100795.09;5069992;27;66423;-39
2023/02/13 09:36:22;;;;;;;;;;;;;;;32.47;61.48;100787.63;5085573;27;68932;-40
2023/02/13 09:38:56;;;;;;;;;;;;;;;32.42;61.56;100796.44;5092852;27;66524;-38
2023/02/13 09:41:31;;;;;;;;;;;;;;;32.42;61.85;100796.44;5090282;27;70575;-40
2023/02/13 09:44:04;;;;;;;;;;;;;;;32.39;62.09;100801.50;5094056;27;66795;-40
2023/02/13 09:46:35;;;;;;;;;;;;;;;32.33;62.43;100797.84;5090326;27;70047;-38
2023/02/13 09:49:13;;;;;;;;;;;;;;;32.33;62.46;100811.41;5093524;27;66228;-37
2023/02/13 09:51:46;;;;;;;;;;;;;;;32.33;62.67;100807.88;5077817;27;70429;-38
2023/02/13 09:54:18;;;;;;;;;;;;;;;32.30;62.70;100817.31;5089940;27;67571;-38
2023/02/13 09:56:53;;;;;;;;;;;;;;;32.31;62.81;100821.66;5090599;27;69879;-36
2023/02/13 09:59:29;;;;;;;;;;;;;;;32.28;62.97;100822.13;5085977;27;65905;-38
2023/02/13 10:02:20;;;;;;;;;;;;;;;32.28;63.08;100827.56;5072499;27;69601;-43
2023/02/13 10:04:56;;;;;;;;;;;;;;;32.28;63.09;100820.25;5091169;27;66035;-37
2023/02/13 10:07:33;;;;;;;;;;;;;;;32.43;62.70;100814.41;5090972;27;70326;-37
2023/02/13 10:10:12;;;;;;;;;;;;;;;32.59;62.02;100822.94;5094269;27;66239;-37
2023/02/13 10:12:49;;;;;;;;;;;;;;;32.66;61.88;100824.50;5074291;27;69453;-38
2023/02/13 10:15:19;;;;;;;;;;;;;;;32.34;61.59;100766.91;5073277;27;66780;-37
2023/02/13 10:17:55;;;;;;;;;;;;;;;32.79;61.42;100823.47;5093632;27;70645;-37
2023/02/13 10:20:52;;;;;;;;;;;;;;;32.85;61.37;100832.56;5073850;27;67777;-36
2023/02/13 10:23:28;;;;;;;;;;;;;;;32.89;60.94;100826.41;5075520;27;68967;-38
2023/02/13 10:26:00;;;;;;;;;;;;;;;32.91;60.75;100831.63;5093409;27;66253;-38
2023/02/13 10:28:41;;;;;;;;;;;;;;;32.93;60.57;100835.75;5069909;27;70596;-37
2023/02/13 10:31:16;;;;;;;;;;;;;;;32.94;60.43;100842.00;5094915;27;66228;-38
2023/02/13 10:33:51;;;;;;;;;;;;;;;32.93;60.42;100835.75;5094438;27;70079;-39
2023/02/13 10:36:29;;;;;;;;;;;;;;;32.92;61.00;100838.69;5087829;27;66118;-37
2023/02/13 10:39:05;;;;;;;;;;;;;;;32.59;62.05;100844.66;5090812;27;69535;-39
2023/02/13 10:41:43;;;;;;;;;;;;;;;32.36;62.57;100846.22;5091386;27;66142;-36
2023/02/13 10:44:20;;;;;;;;;;;;;;;32.13;62.82;100846.16;5089813;27;69670;-36
2023/02/13 10:46:54;;;;;;;;;;;;;;;31.96;63.32;100845.97;5090154;27;65447;-37
2023/02/13 10:49:30;;;;;;;;;;;;;;;31.85;63.85;100855.66;5097538;27;69779;-36
2023/02/13 10:52:14;;;;;;;;;;;;;;;31.85;64.22;100846.72;5091749;27;65948;-37
2023/02/13 10:54:56;;;;;;;;;;;;;;;31.87;64.70;100853.53;5094995;27;68943;-39
2023/02/13 10:57:29;;;;;;;;;;;;;;;31.90;65.77;100857.69;5096231;27;66050;-40
2023/02/13 11:00:03;;;;;;;;;;;;;;;31.90;66.10;100857.69;5096291;27;70778;-38
2023/02/13 11:02:34;;;;;;;;;;;;;;;31.91;65.72;100860.22;5094154;27;66020;-40
2023/02/13 11:05:13;;;;;;;;;;;;;;;31.89;66.03;100856.03;5087971;27;69445;-38
2023/02/13 11:07:47;;;;;;;;;;;;;;;31.92;66.30;100867.28;5088688;27;66011;-39
2023/02/13 11:10:18;;;;;;;;;;;;;;;32.10;65.55;100862.91;5092806;27;70154;-38
2023/02/13 11:12:49;;;;;;;;;;;;;;;32.20;64.58;100868.59;5093831;27;66575;-38
2023/02/13 11:15:21;;;;;;;;;;;;;;;32.27;64.32;100869.34;5073807;27;69854;-38
2023/02/13 11:17:53;;;;;;;;;;;;;;;32.32;63.94;100877.63;5095383;27;66655;-39
2023/02/13 11:20:48;;;;;;;;;;;;;;;32.36;63.38;100878.81;5090861;27;69938;-38
2023/02/13 11:23:32;;;;;;;;;;;;;;;32.38;63.31;100876.69;5091369;27;65786;-38
2023/02/13 11:26:06;;;;;;;;;;;;;;;32.40;63.26;100874.59;5088495;27;69749;-38
2023/02/13 11:28:38;;;;;;;;;;;;;;;32.40;63.38;100884.59;5088771;27;65248;-37
2023/02/13 11:31:13;;;;;;;;;;;;;;;32.41;62.88;100892.53;5088322;27;70408;-38
2023/02/13 11:33:44;;;;;;;;;;;;;;;32.42;62.71;100882.50;5051450;27;66791;-37
2023/02/13 11:36:23;;;;;;;;;;;;;;;32.41;62.78;100892.53;5084398;27;68122;-38
2023/02/13 11:38:58;;;;;;;;;;;;;;;32.40;62.65;100887.31;5084375;27;66357;-39
2023/02/13 11:41:29;;;;;;;;;;;;;;;32.40;62.54;100892.75;5088252;27;70418;-39
2023/02/13 11:44:01;;;;;;;;;;;;;;;32.38;62.66;100901.13;5087392;27;65432;-37
2023/02/13 11:46:45;;;;;;;;;;;;;;;32.39;63.17;100896.53;5088528;27;70302;-38
2023/02/13 11:49:23;;;;;;;;;;;;;;;32.34;63.65;100897.22;5076972;27;65327;-38
2023/02/13 11:51:55;;;;;;;;;;;;;;;32.34;63.36;100894.50;5086198;27;70597;-40
2023/02/13 11:54:31;;;;;;;;;;;;;;;32.33;63.37;100895.56;5078387;27;66538;-39
2023/02/13 11:57:03;;;;;;;;;;;;;;;32.33;63.25;100895.56;5088001;27;69633;-38
2023/02/13 11:59:42;;;;;;;;;;;;;;;32.32;63.36;100904.78;5096528;27;66297;-37
2023/02/13 12:02:19;;;;;;;;;;;;;;;32.29;63.32;100916.09;5100265;27;70275;-38
2023/02/13 12:04:51;;;;;;;;;;;;;;;32.27;63.50;100912.78;5093086;27;66345;-39
2023/02/13 12:07:24;;;;;;;;;;;;;;;32.25;63.47;100917.59;5098044;27;69103;-37
2023/02/13 12:10:00;;;;;;;;;;;;;;;32.24;63.43;100924.09;5090792;27;65997;-37
2023/02/13 12:12:39;;;;;;;;;;;;;;;32.22;63.50;100923.47;5086612;27;68382;-40
2023/02/13 12:15:23;;;;;;;;;;;;;;;32.20;63.61;100931.03;5075836;27;64506;-38
2023/02/13 12:17:56;;;;;;;;;;;;;;;32.16;63.66;100933.38;5090857;27;69302;-39
2023/02/13 12:20:27;;;;;;;;;;;;;;;32.15;63.88;100942.56;5091441;27;65323;-39
2023/02/13 12:23:02;;;;;;;;;;;;;;;32.13;64.08;100946.56;5097501;27;70372;-39
2023/02/13 12:25:38;;;;;;;;;;;;;;;32.11;64.28;100954.09;5095526;27;66042;-38
2023/02/13 12:28:11;;;;;;;;;;;;;;;32.10;64.28;100966.84;5084426;27;69874;-38
2023/02/13 12:30:46;;;;;;;;;;;;;;;32.07;64.15;100969.16;5096931;27;65952;-38
2023/02/13 12:33:25;;;;;;;;;;;;;;;32.04;64.18;100959.63;5096316;27;69173;-38
2023/02/13 12:36:01;;;;;;;;;;;;;;;32.02;64.03;100970.69;5050790;27;65402;-38
2023/02/13 12:38:32;;;;;;;;;;;;;;;32.01;64.36;100971.75;5089271;27;70318;-37
2023/02/13 12:41:02;;;;;;;;;;;;;;;32.02;64.47;100978.81;5085836;27;66585;-38
2023/02/13 12:43:38;;;;;;;;;;;;;;;32.00;64.43;100980.94;5097376;27;69248;-38
2023/02/13 12:46:23;;;;;;;;;;;;;;;31.99;64.36;100992.84;5097995;27;66958;-39
2023/02/13 12:49:08;;;;;;;;;;;;;;;31.97;64.22;100992.25;5100121;27;69076;-39
2023/02/13 12:51:51;;;;;;;;;;;;;;;31.96;64.80;100996.00;5091474;27;66439;-38
2023/02/13 12:54:36;;;;;;;;;;;;;;;31.94;64.74;100994.56;5085812;27;69789;-38
2023/02/13 12:57:06;;;;;;;;;;;;;;;31.91;64.96;101001.28;5090772;27;66774;-40
2023/02/13 12:59:42;;;;;;;;;;;;;;;31.89;64.43;101008.78;5074649;27;69675;-39
2023/02/13 13:02:13;;;;;;;;;;;;;;;31.87;64.75;101007.34;5045736;27;66767;-40
2023/02/13 13:05:02;;;;;;;;;;;;;;;31.84;65.08;101005.91;5061828;27;70282;-39
2023/02/13 13:07:38;;;;;;;;;;;;;;;31.81;64.88;101011.78;5095117;27;66367;-38
2023/02/13 13:10:09;;;;;;;;;;;;;;;31.81;64.91;101003.63;5097072;27;69163;-39
2023/02/13 13:12:42;;;;;;;;;;;;;;;31.78;65.21;101007.63;5087472;27;65941;-39
2023/02/13 13:15:29;;;;;;;;;;;;;;;31.76;65.28;101008.91;5084495;27;70635;-40
2023/02/13 13:17:59;;;;;;;;;;;;;;;31.75;65.54;101009.97;5090730;27;65847;-38
2023/02/13 13:20:42;;;;;;;;;;;;;;;31.75;64.78;101012.66;5087548;27;70077;-37
2023/02/13 13:23:19;;;;;;;;;;;;;;;31.62;66.61;101019.03;5082531;27;66737;-37
2023/02/13 13:26:01;;;;;;;;;;;;;;;31.52;66.97;101019.56;5091830;27;70110;-37
2023/02/13 13:28:41;;;;;;;;;;;;;;;31.24;63.54;101021.84;5092697;27;66738;-38
2023/02/13 13:31:12;;;;;;;;;;;;;;;30.96;59.88;101023.06;5086392;27;70417;-38
2023/02/13 13:33:44;;;;;;;;;;;;;;;30.72;57.13;101033.56;5094783;27;65927;-40
2023/02/13 13:36:26;;;;;;;;;;;;;;;30.47;55.07;101029.91;5088897;27;69450;-38
2023/02/13 13:39:09;;;;;;;;;;;;;;;30.24;53.49;101033.94;5059998;27;66906;-38
2023/02/13 13:45:28;;;;;;;;;;;;;;;29.97;55.12;101037.72;5080777;27;66378;-37
2023/02/13 13:48:16;;;;;;;;;;;;;;;29.82;53.23;101038.78;5083858;27;70580;-37
2023/02/13 13:50:47;;;;;;;;;;;;;;;29.69;51.69;101062.28;5087047;27;65441;-38
2023/02/13 13:53:19;;;;;;;;;;;;;;;29.58;51.46;101058.28;5088254;27;69908;-37